Saint Johns, AZ

11:20 AM MST on December 07, 2016 (GMT -0700)
Saint Johns Industrial | | Change Station

Elev 5725 ft 34.52 °N, 109.38 °W | Updated 26 minutes ago

Mostly Cloudy
Mostly Cloudy
43 °F
Feels Like 37 °F
N
12
Wind Variable Wind from NNW

Today
High -- | Low -- °F
--% Chance of Precip.
Yesterday
High -- | Low -- °F
Precip. -- in
Pressure 30.00 in
Visibility 10.0 miles
Clouds Mostly Cloudy 4500 ft
Windchill 37 °F
Dew Point 31 °F
Humidity 62%
Rainfall 0.00 in
Snow Depth Not available.
7:11 AM 5:06 PM
First Quarter, 54% visible
METAR KSJN 071754Z AUTO 34010KT 10SM BKN045 06/M01 A3006 RMK AO2 SLP157 T00611006 10067 20039 51014 TSNO
Pressure 30.00 in
Visibility 10.0 miles
Clouds Mostly Cloudy 4500 ft
Windchill 37 °F
Dew Point 31 °F
Humidity 62%
Rainfall 0.00 in
Snow Depth Not available.
7:11 AM 5:06 PM
First Quarter, 54% visible
METAR KSJN 071754Z AUTO 34010KT 10SM BKN045 06/M01 A3006 RMK AO2 SLP157 T00611006 10067 20039 51014 TSNO

10-Day Weather Forecast

Almanac

Astronomy

Dec. 07, 2016 Rise Set
Actual Time
Civil Twilight
Nautical Twilight
Astronomical Twilight
Moon
Length of Visible Light
Length of Day
Tomorrow will be .
, % of the Moon is Illuminated

Today's Extremes

State Highs State Lows

Community

WunderPhotos

Upload Photos

1,956,157 photos uploaded!

WunderBlog® & News

Nearby

Air Quality

  Air Quality AQ Index Pollutant
Not available.

Snow Depth

Station Depth Elevation

Earthquake Activity

City Distance Mag. Time & Date
Minimum magnitude displayed is 2.5.

Coastal Water Temperatures

Place Temperature

Stations

Nearby Weather Stations

Station Location Temp. Windchill Dew Point Humidity Wind Precip. Elev Updated Type
                   

Watches & Warnings

There are currently no watches in effect.